sensor_id;sensor_type;location;lat;lon;timestamp;pressure;altitude;pressure_sealevel;temperature;humidity
72525;BME280;60547;48.502;8.996;2022-09-06T00:00:10;98041.84;;;16.76;79.61
72525;BME280;60547;48.502;8.996;2022-09-06T00:02:36;98030.78;;;16.73;79.78
72525;BME280;60547;48.502;8.996;2022-09-06T00:05:02;98041.69;;;16.80;79.35
72525;BME280;60547;48.502;8.996;2022-09-06T00:07:28;98036.97;;;16.86;79.24
72525;BME280;60547;48.502;8.996;2022-09-06T00:09:53;98025.41;;;16.84;79.39
72525;BME280;60547;48.502;8.996;2022-09-06T00:12:19;98033.56;;;16.82;79.58
72525;BME280;60547;48.502;8.996;2022-09-06T00:14:45;98028.28;;;16.75;79.32
72525;BME280;60547;48.502;8.996;2022-09-06T00:17:10;98030.94;;;16.69;79.47
72525;BME280;60547;48.502;8.996;2022-09-06T00:19:35;98027.38;;;16.60;79.94
72525;BME280;60547;48.502;8.996;2022-09-06T00:22:01;98026.94;;;16.52;80.17
72525;BME280;60547;48.502;8.996;2022-09-06T00:24:26;98038.00;;;16.56;80.30
72525;BME280;60547;48.502;8.996;2022-09-06T00:26:52;98045.81;;;16.52;80.15
72525;BME280;60547;48.502;8.996;2022-09-06T00:29:17;98029.75;;;16.52;80.15
72525;BME280;60547;48.502;8.996;2022-09-06T00:31:43;98031.59;;;16.55;80.32
72525;BME280;60547;48.502;8.996;2022-09-06T00:34:08;98019.66;;;16.36;80.68
72525;BME280;60547;48.502;8.996;2022-09-06T00:36:33;98031.50;;;16.40;80.70
72525;BME280;60547;48.502;8.996;2022-09-06T00:38:59;98025.88;;;16.40;80.86
72525;BME280;60547;48.502;8.996;2022-09-06T00:41:24;98029.50;;;16.32;80.76
72525;BME280;60547;48.502;8.996;2022-09-06T00:43:50;98026.81;;;16.37;80.93
72525;BME280;60547;48.502;8.996;2022-09-06T00:46:20;98030.28;;;16.32;80.96
72525;BME280;60547;48.502;8.996;2022-09-06T00:48:49;98022.47;;;16.27;81.10
72525;BME280;60547;48.502;8.996;2022-09-06T00:51:17;98031.22;;;16.29;80.74
72525;BME280;60547;48.502;8.996;2022-09-06T00:53:43;98032.47;;;16.28;80.88
72525;BME280;60547;48.502;8.996;2022-09-06T00:56:09;98024.69;;;16.23;80.68
72525;BME280;60547;48.502;8.996;2022-09-06T00:58:35;98024.66;;;16.32;80.21
72525;BME280;60547;48.502;8.996;2022-09-06T01:01:01;98029.03;;;16.33;79.89
72525;BME280;60547;48.502;8.996;2022-09-06T01:03:27;98032.16;;;16.26;80.55
72525;BME280;60547;48.502;8.996;2022-09-06T01:05:56;98040.09;;;16.28;80.63
72525;BME280;60547;48.502;8.996;2022-09-06T01:11:18;98054.63;;;16.26;80.91
72525;BME280;60547;48.502;8.996;2022-09-06T01:17:06;98043.09;;;16.24;81.04
72525;BME280;60547;48.502;8.996;2022-09-06T01:19:58;98044.03;;;16.21;81.07
72525;BME280;60547;48.502;8.996;2022-09-06T01:28:10;98049.97;;;16.05;81.98
72525;BME280;60547;48.502;8.996;2022-09-06T01:31:09;98060.44;;;16.04;81.61
72525;BME280;60547;48.502;8.996;2022-09-06T01:33:45;98064.97;;;15.93;82.37
72525;BME280;60547;48.502;8.996;2022-09-06T01:36:17;98052.78;;;15.96;82.31
72525;BME280;60547;48.502;8.996;2022-09-06T01:38:43;98054.03;;;15.95;82.23
72525;BME280;60547;48.502;8.996;2022-09-06T01:41:09;98049.22;;;15.86;82.03
72525;BME280;60547;48.502;8.996;2022-09-06T01:43:37;98055.59;;;15.87;82.00
72525;BME280;60547;48.502;8.996;2022-09-06T01:51:56;98067.16;;;15.79;81.59
72525;BME280;60547;48.502;8.996;2022-09-06T02:00:10;98069.78;;;15.92;80.88
72525;BME280;60547;48.502;8.996;2022-09-06T02:02:56;98064.97;;;15.93;80.68
72525;BME280;60547;48.502;8.996;2022-09-06T02:05:47;98065.44;;;15.82;81.12
72525;BME280;60547;48.502;8.996;2022-09-06T02:08:48;98072.59;;;15.83;81.14
72525;BME280;60547;48.502;8.996;2022-09-06T02:11:16;98061.69;;;15.76;81.50
72525;BME280;60547;48.502;8.996;2022-09-06T02:13:50;98073.06;;;15.72;81.37
72525;BME280;60547;48.502;8.996;2022-09-06T02:16:22;98060.28;;;15.71;81.63
72525;BME280;60547;48.502;8.996;2022-09-06T02:18:58;98060.91;;;15.75;81.78
72525;BME280;60547;48.502;8.996;2022-09-06T02:21:34;98056.06;;;15.76;82.22
72525;BME280;60547;48.502;8.996;2022-09-06T02:24:07;98057.94;;;15.70;82.26
72525;BME280;60547;48.502;8.996;2022-09-06T02:26:36;98053.13;;;15.70;82.23
72525;BME280;60547;48.502;8.996;2022-09-06T02:29:03;98062.47;;;15.76;82.27
72525;BME280;60547;48.502;8.996;2022-09-06T02:31:32;98043.75;;;15.64;82.19
72525;BME280;60547;48.502;8.996;2022-09-06T02:33:58;98060.44;;;15.77;82.39
72525;BME280;60547;48.502;8.996;2022-09-06T02:36:24;98056.22;;;15.72;82.35
72525;BME280;60547;48.502;8.996;2022-09-06T02:38:50;98052.66;;;15.81;82.46
72525;BME280;60547;48.502;8.996;2022-09-06T02:41:19;98057.47;;;15.80;82.78
72525;BME280;60547;48.502;8.996;2022-09-06T02:43:48;98058.72;;;15.89;82.28
72525;BME280;60547;48.502;8.996;2022-09-06T02:46:14;98047.97;;;15.87;82.33
72525;BME280;60547;48.502;8.996;2022-09-06T02:48:40;98081.78;;;16.02;82.29
72525;BME280;60547;48.502;8.996;2022-09-06T02:51:07;98073.06;;;15.72;83.49
72525;BME280;60547;48.502;8.996;2022-09-06T02:53:33;98053.75;;;15.65;84.11
72525;BME280;60547;48.502;8.996;2022-09-06T02:55:59;98066.19;;;16.01;83.21
72525;BME280;60547;48.502;8.996;2022-09-06T02:58:25;98068.22;;;16.09;84.31
72525;BME280;60547;48.502;8.996;2022-09-06T03:00:50;98048.88;;;16.11;83.80
72525;BME280;60547;48.502;8.996;2022-09-06T03:03:17;98045.56;;;16.31;83.31
72525;BME280;60547;48.502;8.996;2022-09-06T03:05:51;98044.94;;;16.27;81.68
72525;BME280;60547;48.502;8.996;2022-09-06T03:08:17;98037.19;;;16.13;81.71
72525;BME280;60547;48.502;8.996;2022-09-06T03:10:54;98044.66;;;16.16;81.60
72525;BME280;60547;48.502;8.996;2022-09-06T03:13:21;98057.59;;;16.23;81.12
72525;BME280;60547;48.502;8.996;2022-09-06T03:15:55;98070.22;;;16.27;81.42
72525;BME280;60547;48.502;8.996;2022-09-06T03:18:25;98066.97;;;16.20;80.98
72525;BME280;60547;48.502;8.996;2022-09-06T03:20:51;98073.50;;;16.17;81.24
72525;BME280;60547;48.502;8.996;2022-09-06T03:23:20;98076.94;;;16.11;81.41
72525;BME280;60547;48.502;8.996;2022-09-06T03:25:46;98057.78;;;16.10;81.50
72525;BME280;60547;48.502;8.996;2022-09-06T03:28:11;98066.81;;;16.14;81.27
72525;BME280;60547;48.502;8.996;2022-09-06T03:30:38;98065.72;;;16.11;81.51
72525;BME280;60547;48.502;8.996;2022-09-06T03:33:03;98067.13;;;15.98;81.88
72525;BME280;60547;48.502;8.996;2022-09-06T03:35:29;98062.47;;;15.95;81.80
72525;BME280;60547;48.502;8.996;2022-09-06T03:37:55;98083.34;;;16.03;81.68
72525;BME280;60547;48.502;8.996;2022-09-06T03:40:20;98058.88;;;16.03;81.78
72525;BME280;60547;48.502;8.996;2022-09-06T03:42:46;98077.91;;;16.08;82.02
72525;BME280;60547;48.502;8.996;2022-09-06T03:45:11;98095.66;;;16.14;81.64
72525;BME280;60547;48.502;8.996;2022-09-06T03:47:37;98088.50;;;16.04;81.73
72525;BME280;60547;48.502;8.996;2022-09-06T03:50:03;98088.66;;;16.01;81.84
72525;BME280;60547;48.502;8.996;2022-09-06T03:52:29;98086.31;;;15.99;81.20
72525;BME280;60547;48.502;8.996;2022-09-06T03:54:54;98088.50;;;16.04;81.36
72525;BME280;60547;48.502;8.996;2022-09-06T03:57:20;98087.25;;;16.05;81.58
72525;BME280;60547;48.502;8.996;2022-09-06T03:59:45;98091.00;;;16.02;81.72
72525;BME280;60547;48.502;8.996;2022-09-06T04:02:11;98091.16;;;15.99;81.71
72525;BME280;60547;48.502;8.996;2022-09-06T04:04:36;98076.50;;;15.86;81.80
72525;BME280;60547;48.502;8.996;2022-09-06T04:07:02;98092.09;;;15.87;82.47
72525;BME280;60547;48.502;8.996;2022-09-06T04:09:27;98087.41;;;15.83;82.23
72525;BME280;60547;48.502;8.996;2022-09-06T04:11:53;98094.91;;;15.87;81.81
72525;BME280;60547;48.502;8.996;2022-09-06T04:14:18;98088.97;;;15.75;82.61
72525;BME280;60547;48.502;8.996;2022-09-06T04:16:43;98098.94;;;15.76;82.64
72525;BME280;60547;48.502;8.996;2022-09-06T04:19:09;98095.84;;;15.83;82.62
72525;BME280;60547;48.502;8.996;2022-09-06T04:21:34;98071.50;;;15.71;82.76
72525;BME280;60547;48.502;8.996;2022-09-06T04:24:00;98071.81;;;15.73;83.19
72525;BME280;60547;48.502;8.996;2022-09-06T04:26:28;98067.78;;;15.74;83.07
72525;BME280;60547;48.502;8.996;2022-09-06T04:28:54;98067.47;;;15.72;83.03
72525;BME280;60547;48.502;8.996;2022-09-06T04:31:19;98060.91;;;15.66;82.70
72525;BME280;60547;48.502;8.996;2022-09-06T04:33:45;98055.59;;;15.68;82.76
72525;BME280;60547;48.502;8.996;2022-09-06T04:36:10;98073.84;;;15.73;82.90
72525;BME280;60547;48.502;8.996;2022-09-06T04:38:38;98074.31;;;15.71;82.43
72525;BME280;60547;48.502;8.996;2022-09-06T04:41:05;98064.50;;;15.67;82.35
72525;BME280;60547;48.502;8.996;2022-09-06T04:43:31;98078.69;;;15.72;82.55
72525;BME280;60547;48.502;8.996;2022-09-06T04:46:02;98068.41;;;15.69;83.06
72525;BME280;60547;48.502;8.996;2022-09-06T04:48:28;98060.44;;;15.68;82.78
72525;BME280;60547;48.502;8.996;2022-09-06T04:50:53;98047.81;;;15.63;83.41
72525;BME280;60547;48.502;8.996;2022-09-06T04:53:19;98047.19;;;15.59;83.32
72525;BME280;60547;48.502;8.996;2022-09-06T04:55:44;98056.97;;;15.55;83.57
72525;BME280;60547;48.502;8.996;2022-09-06T04:58:09;98061.81;;;15.54;83.35
72525;BME280;60547;48.502;8.996;2022-09-06T05:00:35;98063.09;;;15.62;83.55
72525;BME280;60547;48.502;8.996;2022-09-06T05:03:02;98067.47;;;15.63;83.57
72525;BME280;60547;48.502;8.996;2022-09-06T05:05:28;98067.91;;;15.62;83.42
72525;BME280;60547;48.502;8.996;2022-09-06T05:07:54;98075.88;;;15.63;83.75
72525;BME280;60547;48.502;8.996;2022-09-06T05:10:20;98077.06;;;15.53;83.86
72525;BME280;60547;48.502;8.996;2022-09-06T05:12:48;98074.94;;;15.57;83.42
72525;BME280;60547;48.502;8.996;2022-09-06T05:15:14;98071.31;;;15.57;83.33
72525;BME280;60547;48.502;8.996;2022-09-06T05:17:40;98073.22;;;15.60;83.45
72525;BME280;60547;48.502;8.996;2022-09-06T05:20:06;98068.06;;;15.58;83.51
72525;BME280;60547;48.502;8.996;2022-09-06T05:22:32;98072.75;;;15.61;83.35
72525;BME280;60547;48.502;8.996;2022-09-06T05:24:57;98071.97;;;15.61;83.35
72525;BME280;60547;48.502;8.996;2022-09-06T05:27:23;98070.09;;;15.67;82.88
72525;BME280;60547;48.502;8.996;2022-09-06T05:29:48;98075.88;;;15.72;83.12
72525;BME280;60547;48.502;8.996;2022-09-06T05:32:14;98080.25;;;15.73;82.96
72525;BME280;60547;48.502;8.996;2022-09-06T05:34:39;98084.75;;;15.80;82.29
72525;BME280;60547;48.502;8.996;2022-09-06T05:37:04;98087.09;;;15.81;82.02
72525;BME280;60547;48.502;8.996;2022-09-06T05:39:30;98092.41;;;15.79;82.19
72525;BME280;60547;48.502;8.996;2022-09-06T05:41:57;98098.31;;;15.81;82.44
72525;BME280;60547;48.502;8.996;2022-09-06T05:44:23;98091.16;;;15.80;81.80
72525;BME280;60547;48.502;8.996;2022-09-06T05:46:48;98102.06;;;15.88;82.17
72525;BME280;60547;48.502;8.996;2022-09-06T05:49:14;98103.63;;;15.89;82.55
72525;BME280;60547;48.502;8.996;2022-09-06T05:51:39;98114.38;;;15.90;82.37
72525;BME280;60547;48.502;8.996;2022-09-06T05:54:05;98109.25;;;15.89;82.63
72525;BME280;60547;48.502;8.996;2022-09-06T05:56:32;98111.75;;;15.87;82.82
72525;BME280;60547;48.502;8.996;2022-09-06T05:58:57;98101.75;;;15.86;82.94
72525;BME280;60547;48.502;8.996;2022-09-06T06:01:26;98107.69;;;15.97;82.88
72525;BME280;60547;48.502;8.996;2022-09-06T06:03:53;98105.50;;;15.92;83.46
72525;BME280;60547;48.502;8.996;2022-09-06T06:06:20;98105.81;;;15.94;83.38
72525;BME280;60547;48.502;8.996;2022-09-06T06:08:46;98111.88;;;16.10;82.64
72525;BME280;60547;48.502;8.996;2022-09-06T06:11:12;98104.41;;;16.26;81.95
72525;BME280;60547;48.502;8.996;2022-09-06T06:13:38;98109.84;;;16.29;81.24
72525;BME280;60547;48.502;8.996;2022-09-06T06:16:11;98109.84;;;16.20;81.77
72525;BME280;60547;48.502;8.996;2022-09-06T06:18:37;98110.78;;;16.17;82.35
72525;BME280;60547;48.502;8.996;2022-09-06T06:21:11;98106.59;;;16.12;82.59
72525;BME280;60547;48.502;8.996;2022-09-06T06:23:38;98134.19;;;16.23;82.33
72525;BME280;60547;48.502;8.996;2022-09-06T06:26:04;98131.38;;;16.14;81.96
72525;BME280;60547;48.502;8.996;2022-09-06T06:28:30;98126.09;;;16.16;82.13
72525;BME280;60547;48.502;8.996;2022-09-06T06:30:56;98119.06;;;16.21;82.40
72525;BME280;60547;48.502;8.996;2022-09-06T06:33:24;98121.25;;;16.26;81.71
72525;BME280;60547;48.502;8.996;2022-09-06T06:36:01;98119.22;;;16.26;81.38
72525;BME280;60547;48.502;8.996;2022-09-06T06:38:35;98121.38;;;16.40;81.92
72525;BME280;60547;48.502;8.996;2022-09-06T06:41:03;98123.22;;;16.53;81.65
72525;BME280;60547;48.502;8.996;2022-09-06T06:43:29;98132.28;;;16.57;81.53
72525;BME280;60547;48.502;8.996;2022-09-06T06:46:02;98119.94;;;16.63;81.56
72525;BME280;60547;48.502;8.996;2022-09-06T06:48:27;98129.44;;;16.75;80.54
72525;BME280;60547;48.502;8.996;2022-09-06T06:50:52;98121.16;;;16.81;79.93
72525;BME280;60547;48.502;8.996;2022-09-06T06:53:18;98126.50;;;16.69;80.24
72525;BME280;60547;48.502;8.996;2022-09-06T06:55:47;98124.09;;;16.86;79.95
72525;BME280;60547;48.502;8.996;2022-09-06T06:58:16;98114.09;;;16.94;80.00
72525;BME280;60547;48.502;8.996;2022-09-06T07:00:42;98112.09;;;17.19;80.21
72525;BME280;60547;48.502;8.996;2022-09-06T07:03:09;98116.06;;;17.36;79.52
72525;BME280;60547;48.502;8.996;2022-09-06T07:05:38;98108.28;;;17.31;79.19
72525;BME280;60547;48.502;8.996;2022-09-06T07:08:05;98112.59;;;17.41;78.74
72525;BME280;60547;48.502;8.996;2022-09-06T07:10:30;98116.31;;;17.47;78.42
72525;BME280;60547;48.502;8.996;2022-09-06T07:12:56;98116.31;;;17.47;78.37
72525;BME280;60547;48.502;8.996;2022-09-06T07:15:22;98110.63;;;17.56;78.86
72525;BME280;60547;48.502;8.996;2022-09-06T07:17:47;98108.09;;;17.67;78.15
72525;BME280;60547;48.502;8.996;2022-09-06T07:20:13;98115.28;;;17.68;78.17
72525;BME280;60547;48.502;8.996;2022-09-06T07:22:38;98115.81;;;17.82;77.89
72525;BME280;60547;48.502;8.996;2022-09-06T07:25:06;98117.38;;;17.83;77.34
72525;BME280;60547;48.502;8.996;2022-09-06T07:27:31;98116.78;;;17.79;76.71
72525;BME280;60547;48.502;8.996;2022-09-06T07:29:57;98113.00;;;17.82;76.25
72525;BME280;60547;48.502;8.996;2022-09-06T07:32:25;98110.19;;;17.82;76.72
72525;BME280;60547;48.502;8.996;2022-09-06T07:34:51;98114.38;;;17.86;76.43
72525;BME280;60547;48.502;8.996;2022-09-06T07:37:16;98110.22;;;17.96;76.42
72525;BME280;60547;48.502;8.996;2022-09-06T07:39:41;98113.34;;;17.98;76.38
72525;BME280;60547;48.502;8.996;2022-09-06T07:42:07;98105.47;;;18.02;76.28
72525;BME280;60547;48.502;8.996;2022-09-06T07:44:32;98115.59;;;18.09;75.96
72525;BME280;60547;48.502;8.996;2022-09-06T07:46:58;98110.94;;;18.06;75.73
72525;BME280;60547;48.502;8.996;2022-09-06T07:49:27;98116.19;;;18.13;76.04
72525;BME280;60547;48.502;8.996;2022-09-06T07:51:52;98105.31;;;18.21;75.79
72525;BME280;60547;48.502;8.996;2022-09-06T07:54:18;98106.72;;;18.40;76.18
72525;BME280;60547;48.502;8.996;2022-09-06T07:56:44;98106.31;;;18.47;75.56
72525;BME280;60547;48.502;8.996;2022-09-06T07:59:09;98100.78;;;18.53;75.16
72525;BME280;60547;48.502;8.996;2022-09-06T08:01:36;98108.78;;;18.69;74.47
72525;BME280;60547;48.502;8.996;2022-09-06T08:04:08;98103.16;;;18.69;74.67
72525;BME280;60547;48.502;8.996;2022-09-06T08:06:35;98108.69;;;18.78;74.86
72525;BME280;60547;48.502;8.996;2022-09-06T08:09:10;98107.59;;;18.90;74.42
72525;BME280;60547;48.502;8.996;2022-09-06T08:11:37;98096.63;;;18.92;74.77
72525;BME280;60547;48.502;8.996;2022-09-06T08:14:04;98113.03;;;19.09;73.61
72525;BME280;60547;48.502;8.996;2022-09-06T08:16:31;98113.69;;;19.18;72.85
72525;BME280;60547;48.502;8.996;2022-09-06T08:19:05;98102.34;;;19.33;72.87
72525;BME280;60547;48.502;8.996;2022-09-06T08:21:33;98091.28;;;19.29;73.23
72525;BME280;60547;48.502;8.996;2022-09-06T08:24:04;98088.53;;;19.35;72.93
72525;BME280;60547;48.502;8.996;2022-09-06T08:26:32;98082.47;;;19.42;72.77
72525;BME280;60547;48.502;8.996;2022-09-06T08:28:59;98087.03;;;19.54;74.00
72525;BME280;60547;48.502;8.996;2022-09-06T08:31:27;98084.72;;;19.73;71.68
72525;BME280;60547;48.502;8.996;2022-09-06T08:33:53;98082.53;;;19.83;71.82
72525;BME280;60547;48.502;8.996;2022-09-06T08:36:19;98086.88;;;20.04;71.19
72525;BME280;60547;48.502;8.996;2022-09-06T08:38:44;98089.56;;;20.13;70.30
72525;BME280;60547;48.502;8.996;2022-09-06T08:43:45;98072.81;;;20.36;69.59
72525;BME280;60547;48.502;8.996;2022-09-06T08:46:14;98080.16;;;20.48;70.66
72525;BME280;60547;48.502;8.996;2022-09-06T08:48:40;98068.31;;;20.44;69.09
72525;BME280;60547;48.502;8.996;2022-09-06T08:51:28;98075.84;;;20.52;69.19
72525;BME280;60547;48.502;8.996;2022-09-06T08:54:10;98069.59;;;20.74;67.97
72525;BME280;60547;48.502;8.996;2022-09-06T08:57:00;98075.69;;;20.93;67.19
72525;BME280;60547;48.502;8.996;2022-09-06T08:59:28;98070.88;;;21.05;66.98
72525;BME280;60547;48.502;8.996;2022-09-06T09:02:19;98070.50;;;21.23;66.85
72525;BME280;60547;48.502;8.996;2022-09-06T09:04:51;98074.69;;;21.33;64.49
72525;BME280;60547;48.502;8.996;2022-09-06T09:07:42;98070.66;;;21.45;66.00
72525;BME280;60547;48.502;8.996;2022-09-06T09:10:20;98077.91;;;21.57;65.07
72525;BME280;60547;48.502;8.996;2022-09-06T09:12:48;98085.66;;;21.63;64.48
72525;BME280;60547;48.502;8.996;2022-09-06T09:15:16;98086.00;;;21.81;64.23
72525;BME280;60547;48.502;8.996;2022-09-06T09:17:43;98080.63;;;21.89;63.43
72525;BME280;60547;48.502;8.996;2022-09-06T09:20:09;98081.69;;;21.97;63.16
72525;BME280;60547;48.502;8.996;2022-09-06T09:22:35;98076.56;;;22.01;65.08
72525;BME280;60547;48.502;8.996;2022-09-06T09:25:03;98075.06;;;22.11;63.01
72525;BME280;60547;48.502;8.996;2022-09-06T09:27:30;98071.47;;;22.16;63.15
72525;BME280;60547;48.502;8.996;2022-09-06T09:30:02;98068.91;;;22.18;62.39
72525;BME280;60547;48.502;8.996;2022-09-06T09:35:35;98079.75;;;22.26;63.41
72525;BME280;60547;48.502;8.996;2022-09-06T09:38:12;98078.72;;;22.29;63.15
72525;BME280;60547;48.502;8.996;2022-09-06T09:40:58;98075.63;;;22.32;61.97
72525;BME280;60547;48.502;8.996;2022-09-06T09:43:30;98067.09;;;22.21;65.04
72525;BME280;60547;48.502;8.996;2022-09-06T09:51:32;98078.47;;;22.32;62.64
72525;BME280;60547;48.502;8.996;2022-09-06T09:54:00;98065.09;;;22.44;61.97
72525;BME280;60547;48.502;8.996;2022-09-06T09:56:48;98075.16;;;22.45;63.40
72525;BME280;60547;48.502;8.996;2022-09-06T09:59:25;98064.56;;;22.40;63.68
72525;BME280;60547;48.502;8.996;2022-09-06T10:01:53;98074.38;;;22.50;63.18
72525;BME280;60547;48.502;8.996;2022-09-06T10:04:34;98075.16;;;22.62;66.19
72525;BME280;60547;48.502;8.996;2022-09-06T10:07:12;98073.63;;;22.66;66.62
72525;BME280;60547;48.502;8.996;2022-09-06T10:09:45;98068.25;;;22.79;62.99
72525;BME280;60547;48.502;8.996;2022-09-06T10:12:33;98059.97;;;22.98;61.56
72525;BME280;60547;48.502;8.996;2022-09-06T10:14:59;98061.50;;;23.22;61.79
72525;BME280;60547;48.502;8.996;2022-09-06T10:19:50;98050.03;;;23.66;61.66
72525;BME280;60547;48.502;8.996;2022-09-06T10:27:33;98043.03;;;23.73;60.75
72525;BME280;60547;48.502;8.996;2022-09-06T10:30:05;98042.00;;;23.76;61.53
72525;BME280;60547;48.502;8.996;2022-09-06T10:32:41;98035.22;;;23.84;64.25
72525;BME280;60547;48.502;8.996;2022-09-06T10:35:18;98038.31;;;23.92;63.19
72525;BME280;60547;48.502;8.996;2022-09-06T10:38:03;98037.31;;;23.84;63.72
72525;BME280;60547;48.502;8.996;2022-09-06T10:40:59;98031.56;;;23.95;62.22
72525;BME280;60547;48.502;8.996;2022-09-06T10:43:35;98012.97;;;23.94;64.63
72525;BME280;60547;48.502;8.996;2022-09-06T10:46:13;98008.25;;;24.02;60.65
72525;BME280;60547;48.502;8.996;2022-09-06T10:48:41;98003.88;;;24.01;59.70
72525;BME280;60547;48.502;8.996;2022-09-06T10:51:26;97998.16;;;24.07;59.38
72525;BME280;60547;48.502;8.996;2022-09-06T10:56:33;98001.81;;;24.02;60.99
72525;BME280;60547;48.502;8.996;2022-09-06T11:01:39;97988.31;;;24.08;60.57
72525;BME280;60547;48.502;8.996;2022-09-06T11:04:16;97985.72;;;24.10;60.10
72525;BME280;60547;48.502;8.996;2022-09-06T11:06:49;97984.47;;;24.05;59.57
72525;BME280;60547;48.502;8.996;2022-09-06T11:09:24;97974.66;;;24.01;60.45
72525;BME280;60547;48.502;8.996;2022-09-06T11:12:02;97982.91;;;24.04;60.86
72525;BME280;60547;48.502;8.996;2022-09-06T11:14:32;97974.38;;;24.04;59.87
72525;BME280;60547;48.502;8.996;2022-09-06T11:17:12;97987.25;;;24.11;61.89
72525;BME280;60547;48.502;8.996;2022-09-06T11:19:50;97989.00;;;24.20;61.85
72525;BME280;60547;48.502;8.996;2022-09-06T11:28:38;97979.56;;;24.41;59.54
72525;BME280;60547;48.502;8.996;2022-09-06T11:31:08;97974.81;;;24.55;60.25
72525;BME280;60547;48.502;8.996;2022-09-06T11:33:37;97969.00;;;24.66;59.50
72525;BME280;60547;48.502;8.996;2022-09-06T11:36:37;97971.47;;;24.81;58.71
72525;BME280;60547;48.502;8.996;2022-09-06T11:39:06;97982.72;;;24.98;60.34
72525;BME280;60547;48.502;8.996;2022-09-06T11:41:38;97980.94;;;25.19;58.03
72525;BME280;60547;48.502;8.996;2022-09-06T11:44:06;97980.34;;;25.26;56.81
72525;BME280;60547;48.502;8.996;2022-09-06T11:51:47;97992.84;;;26.42;56.47
72525;BME280;60547;48.502;8.996;2022-09-06T11:56:50;97973.91;;;27.02;53.11
72525;BME280;60547;48.502;8.996;2022-09-06T12:04:22;97966.09;;;27.56;54.15
72525;BME280;60547;48.502;8.996;2022-09-06T12:09:36;97971.09;;;28.03;51.71
72525;BME280;60547;48.502;8.996;2022-09-06T12:12:02;97964.50;;;27.94;50.39
72525;BME280;60547;48.502;8.996;2022-09-06T12:14:35;97963.66;;;28.20;48.96
72525;BME280;60547;48.502;8.996;2022-09-06T12:27:59;97948.00;;;28.55;48.31
72525;BME280;60547;48.502;8.996;2022-09-06T12:30:42;97944.50;;;28.49;48.21
72525;BME280;60547;48.502;8.996;2022-09-06T12:33:23;97955.13;;;28.41;45.39
72525;BME280;60547;48.502;8.996;2022-09-06T12:35:50;97943.38;;;28.52;46.37
72525;BME280;60547;48.502;8.996;2022-09-06T12:38:22;97948.03;;;28.21;45.37
72525;BME280;60547;48.502;8.996;2022-09-06T12:40:49;97937.16;;;28.41;46.51
72525;BME280;60547;48.502;8.996;2022-09-06T12:43:22;97939.66;;;28.23;45.49
72525;BME280;60547;48.502;8.996;2022-09-06T12:45:51;97949.81;;;28.11;46.25
72525;BME280;60547;48.502;8.996;2022-09-06T12:48:32;97942.09;;;27.85;45.33
72525;BME280;60547;48.502;8.996;2022-09-06T12:53:29;97927.06;;;28.06;46.67
72525;BME280;60547;48.502;8.996;2022-09-06T12:56:04;97936.72;;;28.16;46.94
72525;BME280;60547;48.502;8.996;2022-09-06T12:58:30;97925.94;;;28.09;45.67
72525;BME280;60547;48.502;8.996;2022-09-06T13:01:44;97923.75;;;27.67;45.47
72525;BME280;60547;48.502;8.996;2022-09-06T13:06:19;97921.88;;;27.57;46.19
72525;BME280;60547;48.502;8.996;2022-09-06T13:08:48;97913.75;;;27.48;46.09
72525;BME280;60547;48.502;8.996;2022-09-06T13:11:19;97918.59;;;27.53;46.76
72525;BME280;60547;48.502;8.996;2022-09-06T13:13:50;97909.72;;;27.43;45.56
72525;BME280;60547;48.502;8.996;2022-09-06T13:18:45;97914.78;;;27.37;46.32
72525;BME280;60547;48.502;8.996;2022-09-06T13:21:24;97917.53;;;27.29;45.06
72525;BME280;60547;48.502;8.996;2022-09-06T13:23:49;97910.59;;;27.25;45.78
72525;BME280;60547;48.502;8.996;2022-09-06T13:26:35;97907.75;;;27.12;43.77
72525;BME280;60547;48.502;8.996;2022-09-06T13:29:31;97904.03;;;27.03;44.36
72525;BME280;60547;48.502;8.996;2022-09-06T13:32:00;97894.69;;;27.03;45.83
72525;BME280;60547;48.502;8.996;2022-09-06T13:34:31;97896.88;;;27.23;44.60
72525;BME280;60547;48.502;8.996;2022-09-06T13:37:02;97896.63;;;27.34;45.93
72525;BME280;60547;48.502;8.996;2022-09-06T13:39:33;97893.53;;;27.46;44.96
72525;BME280;60547;48.502;8.996;2022-09-06T13:42:01;97879.75;;;27.57;45.79
72525;BME280;60547;48.502;8.996;2022-09-06T13:44:32;97887.91;;;27.53;44.82
72525;BME280;60547;48.502;8.996;2022-09-06T13:46:58;97884.09;;;27.38;43.07
72525;BME280;60547;48.502;8.996;2022-09-06T13:49:24;97880.00;;;27.46;43.08
72525;BME280;60547;48.502;8.996;2022-09-06T13:51:54;97870.63;;;27.59;41.57
72525;BME280;60547;48.502;8.996;2022-09-06T13:54:22;97870.22;;;27.89;43.20
72525;BME280;60547;48.502;8.996;2022-09-06T13:56:48;97868.44;;;28.20;42.48
72525;BME280;60547;48.502;8.996;2022-09-06T13:59:14;97852.31;;;28.30;40.60
72525;BME280;60547;48.502;8.996;2022-09-06T14:01:42;97848.75;;;28.16;37.85
72525;BME280;60547;48.502;8.996;2022-09-06T14:04:10;97854.47;;;27.95;36.29
72525;BME280;60547;48.502;8.996;2022-09-06T14:06:37;97865.13;;;27.95;37.00
72525;BME280;60547;48.502;8.996;2022-09-06T14:09:05;97855.78;;;27.94;39.31
72525;BME280;60547;48.502;8.996;2022-09-06T14:11:31;97854.59;;;27.90;41.24
72525;BME280;60547;48.502;8.996;2022-09-06T14:13:56;97846.91;;;27.85;39.60
72525;BME280;60547;48.502;8.996;2022-09-06T14:16:21;97848.13;;;28.10;40.49
72525;BME280;60547;48.502;8.996;2022-09-06T14:18:47;97849.59;;;28.45;38.91
72525;BME280;60547;48.502;8.996;2022-09-06T14:21:14;97854.91;;;28.70;38.93
72525;BME280;60547;48.502;8.996;2022-09-06T14:23:39;97845.59;;;28.48;37.00
72525;BME280;60547;48.502;8.996;2022-09-06T14:26:04;97838.16;;;28.24;37.37
72525;BME280;60547;48.502;8.996;2022-09-06T14:28:31;97851.13;;;28.05;37.63
72525;BME280;60547;48.502;8.996;2022-09-06T14:30:57;97850.81;;;27.74;38.83
72525;BME280;60547;48.502;8.996;2022-09-06T14:33:22;97853.28;;;28.12;39.23
72525;BME280;60547;48.502;8.996;2022-09-06T14:35:47;97849.50;;;28.17;39.52
72525;BME280;60547;48.502;8.996;2022-09-06T14:38:13;97869.81;;;28.06;39.29